createdAt,value
2023-05-22T17:36:26.163Z,5.95
2023-05-22T17:38:52.891Z,4.90
2023-05-22T17:41:19.602Z,6.82
2023-05-22T17:43:46.398Z,6.88
2023-05-22T17:46:13.094Z,6.03
2023-05-22T17:48:41.190Z,5.68
2023-05-22T17:51:07.954Z,5.03
2023-05-22T17:53:37.235Z,5.90
2023-05-22T17:56:05.995Z,5.47
2023-05-22T17:58:32.958Z,5.22
2023-05-22T18:00:59.802Z,4.85
2023-05-22T18:03:26.745Z,5.97
2023-05-22T18:05:53.614Z,5.70
2023-05-22T18:08:21.664Z,5.95
2023-05-22T18:10:48.830Z,5.88
2023-05-22T18:13:15.676Z,6.45
2023-05-22T18:15:42.862Z,6.57
2023-05-22T18:18:12.073Z,12.18
2023-05-22T18:20:39.962Z,8.07
2023-05-22T18:23:06.997Z,6.70
2023-05-22T18:25:33.778Z,7.07
2023-05-22T18:28:00.874Z,6.68
2023-05-22T18:30:27.585Z,6.93
2023-05-22T18:32:54.411Z,7.38
2023-05-22T18:35:21.209Z,6.45
2023-05-22T18:37:48.024Z,7.15
2023-05-22T18:40:15.437Z,7.65
2023-05-22T18:42:43.805Z,8.23
2023-05-22T18:45:11.880Z,7.22
2023-05-22T18:47:38.656Z,7.28
2023-05-22T18:50:05.614Z,8.48
2023-05-22T18:52:32.328Z,8.00
2023-05-22T18:54:59.140Z,7.60
2023-05-22T18:57:25.890Z,7.95
2023-05-22T18:59:52.613Z,7.50
2023-05-22T19:02:21.504Z,6.80
2023-05-22T19:04:49.194Z,7.65
2023-05-22T19:07:15.983Z,7.18
2023-05-22T19:09:43.146Z,7.20
2023-05-22T19:12:09.931Z,7.13
2023-05-22T19:14:36.667Z,6.90
2023-05-22T19:17:03.509Z,6.05
2023-05-22T19:19:30.412Z,6.45
2023-05-22T19:21:57.132Z,8.80
2023-05-22T19:24:23.821Z,7.95
2023-05-22T19:26:50.501Z,6.68
2023-05-22T19:29:17.203Z,6.72
2023-05-22T19:31:43.985Z,6.47
2023-05-22T19:34:10.836Z,6.93
2023-05-22T19:36:37.510Z,7.57
2023-05-22T19:39:04.213Z,7.25
2023-05-22T19:41:31.028Z,7.45
2023-05-22T19:43:57.902Z,6.95
2023-05-22T19:46:24.772Z,6.95
2023-05-22T19:48:51.568Z,7.55
2023-05-22T19:51:18.311Z,6.70
2023-05-22T19:53:45.068Z,7.80
2023-05-22T19:56:12.172Z,7.65
2023-05-22T19:58:38.883Z,8.05
2023-05-22T20:01:05.793Z,7.63
2023-05-22T20:03:32.632Z,7.80
2023-05-22T20:05:59.470Z,8.27
2023-05-22T20:08:26.357Z,8.55
2023-05-22T20:10:53.182Z,8.23
2023-05-22T20:13:20.006Z,7.65
2023-05-22T20:15:47.966Z,8.25
2023-05-22T20:18:14.828Z,8.63
2023-05-22T20:20:41.652Z,9.23
2023-05-22T20:23:08.426Z,8.68
2023-05-22T20:25:35.158Z,8.23
2023-05-22T20:28:03.826Z,8.70
2023-05-22T20:30:31.175Z,8.73
2023-05-22T20:32:58.073Z,9.45
2023-05-22T20:35:26.615Z,8.70
2023-05-22T20:37:53.571Z,8.63
2023-05-22T20:40:20.359Z,9.23
2023-05-22T20:42:47.685Z,8.70
2023-05-22T20:45:15.642Z,7.10
2023-05-22T20:47:43.328Z,8.20
2023-05-22T20:50:10.427Z,9.02
2023-05-22T20:52:37.535Z,8.30
2023-05-22T20:55:04.827Z,7.35
2023-05-22T20:57:31.716Z,7.57
2023-05-22T20:59:58.579Z,7.63
2023-05-22T21:02:25.848Z,7.70
2023-05-22T21:04:52.690Z,7.88
2023-05-22T21:07:19.910Z,7.68
2023-05-22T21:09:46.629Z,8.60
2023-05-22T21:12:13.310Z,8.35
2023-05-22T21:14:40.533Z,7.90
2023-05-22T21:17:07.426Z,8.52
2023-05-22T21:19:34.271Z,9.00
2023-05-22T21:22:01.000Z,7.65
2023-05-22T21:24:27.766Z,7.25
2023-05-22T21:26:54.541Z,7.50
2023-05-22T21:29:21.280Z,7.78
2023-05-22T21:31:48.018Z,7.65
2023-05-22T21:34:14.923Z,7.93
2023-05-22T21:36:41.754Z,7.93
2023-05-22T21:39:08.558Z,7.97
2023-05-22T21:41:35.311Z,8.32
2023-05-22T21:44:02.136Z,8.35
2023-05-22T21:46:28.872Z,8.10
2023-05-22T21:48:56.194Z,7.88
2023-05-22T21:51:22.934Z,8.10
2023-05-22T21:53:49.719Z,7.72
2023-05-22T21:56:16.478Z,7.75
2023-05-22T21:58:43.256Z,8.45
2023-05-22T22:01:10.321Z,7.50
2023-05-22T22:03:39.000Z,7.57
2023-05-22T22:06:06.048Z,7.80
2023-05-22T22:14:00.864Z,7.95
2023-05-22T22:16:28.807Z,7.68
2023-05-22T22:18:56.167Z,7.72
2023-05-22T22:21:23.146Z,7.85
2023-05-22T22:23:49.863Z,6.70
2023-05-22T22:26:16.588Z,6.75
2023-05-22T22:28:43.391Z,7.03
2023-05-22T22:31:10.137Z,7.20
2023-05-22T22:33:36.982Z,7.25
2023-05-22T22:36:04.085Z,6.15
2023-05-22T22:38:33.060Z,7.30
2023-05-22T22:41:00.440Z,7.25
2023-05-22T22:43:27.254Z,6.82
2023-05-22T22:45:54.872Z,6.50
2023-05-22T22:48:22.667Z,7.28
2023-05-22T22:50:49.658Z,7.07
2023-05-22T22:53:16.488Z,6.68
2023-05-22T22:55:43.603Z,6.88
2023-05-22T22:58:10.579Z,6.88
2023-05-22T23:00:37.349Z,6.50
2023-05-22T23:03:04.219Z,7.13
2023-05-22T23:05:31.088Z,6.90
2023-05-22T23:08:02.201Z,7.10
2023-05-22T23:10:29.284Z,6.65
2023-05-22T23:12:56.238Z,6.43
2023-05-22T23:15:23.285Z,7.38
2023-05-22T23:17:51.851Z,6.95
2023-05-22T23:20:18.960Z,7.07
2023-05-22T23:22:45.713Z,7.05
2023-05-22T23:25:12.455Z,7.97
2023-05-22T23:27:39.496Z,7.50
2023-05-22T23:30:06.588Z,6.85
2023-05-22T23:32:33.361Z,8.40
2023-05-22T23:35:00.120Z,8.20
2023-05-22T23:37:26.884Z,6.72
2023-05-22T23:39:54.604Z,7.68
2023-05-22T23:42:21.677Z,7.80
2023-05-22T23:44:48.393Z,8.15
2023-05-22T23:47:16.871Z,7.95
2023-05-22T23:49:43.695Z,7.70
2023-05-22T23:52:12.247Z,7.80
2023-05-22T23:54:39.193Z,7.85
2023-05-22T23:57:05.863Z,8.35
2023-05-22T23:59:32.570Z,7.75
